Time;durP1;ratioP1;P1;durP2;ratioP2;P2;SDS_P1;SDS_P2;PMS_P1;PMS_P2;Temp;Humidity;BMP_temperature;BMP_pressure;BME280_temperature;BME280_humidity;BME280_pressure;Samples;Min_cycle;Max_cycle;Signal;HPM_P1;HPM_P2
2021/06/18 00:00:40;;;;;;;18.37;16.57;;;;;;;25.16;73.52;98998.47;5153371;27;20439;-74
2021/06/18 00:03:07;;;;;;;18.17;16.40;;;;;;;25.28;72.94;99004.34;5153608;27;20419;-75
2021/06/18 00:05:33;;;;;;;18.50;16.60;;;;;;;25.21;73.15;99005.31;5153323;27;21314;-75
2021/06/18 00:08:00;;;;;;;16.60;14.90;;;;;;;25.05;73.94;99004.50;5153309;27;20546;-74
2021/06/18 00:10:28;;;;;;;17.40;15.80;;;;;;;25.18;73.40;99001.91;5153147;27;20416;-74
2021/06/18 00:12:55;;;;;;;18.73;16.83;;;;;;;25.26;73.23;99011.09;5153099;27;20467;-75
2021/06/18 00:15:22;;;;;;;17.53;15.90;;;;;;;25.27;73.21;99007.28;5153510;27;21255;-76
2021/06/18 00:17:49;;;;;;;19.03;17.00;;;;;;;25.37;72.59;99005.91;5153390;27;20583;-76
2021/06/18 00:20:16;;;;;;;19.60;16.93;;;;;;;25.56;71.76;99003.50;5153566;27;21228;-75
2021/06/18 00:22:44;;;;;;;23.73;18.87;;;;;;;25.43;72.14;99001.50;5153604;27;21309;-75
2021/06/18 00:25:12;;;;;;;20.40;18.40;;;;;;;25.56;71.29;99015.38;5153610;27;21162;-76
2021/06/18 00:27:40;;;;;;;18.87;16.30;;;;;;;25.59;70.91;99016.88;5155004;27;20790;-76
2021/06/18 00:30:08;;;;;;;17.60;16.10;;;;;;;25.50;71.67;99024.44;5156277;27;20435;-75
2021/06/18 00:32:35;;;;;;;18.67;16.87;;;;;;;25.40;71.96;99031.38;5156718;27;20549;-76
2021/06/18 00:35:01;;;;;;;19.07;17.37;;;;;;;25.27;72.53;99034.84;5156697;27;20446;-75
2021/06/18 00:37:28;;;;;;;17.67;16.07;;;;;;;25.33;72.26;99039.56;5157089;27;20758;-76
2021/06/18 00:39:55;;;;;;;18.50;16.80;;;;;;;25.40;71.95;99046.00;5156511;27;20518;-75
2021/06/18 00:42:22;;;;;;;18.13;16.23;;;;;;;25.53;71.21;99050.75;5156874;27;20420;-75
2021/06/18 00:44:50;;;;;;;17.50;15.80;;;;;;;25.79;70.05;99061.16;5156532;27;20444;-75
2021/06/18 00:47:20;;;;;;;16.77;15.20;;;;;;;25.73;70.20;99057.31;5156445;27;20447;-75
2021/06/18 00:49:48;;;;;;;17.73;15.93;;;;;;;25.74;69.67;99052.63;5156799;27;20476;-75
2021/06/18 00:52:16;;;;;;;17.50;15.80;;;;;;;25.64;70.07;99060.38;5156700;27;20801;-75
2021/06/18 00:54:44;;;;;;;16.10;14.60;;;;;;;25.67;70.01;99071.03;5156635;27;20768;-75
2021/06/18 00:57:11;;;;;;;17.23;15.57;;;;;;;25.45;70.68;99071.03;5156589;27;20495;-75
2021/06/18 00:59:38;;;;;;;30.17;17.03;;;;;;;25.08;72.85;99070.22;5156628;27;20729;-76
2021/06/18 01:02:06;;;;;;;17.77;16.07;;;;;;;24.97;73.19;99074.34;5156286;27;20793;-75
2021/06/18 01:04:34;;;;;;;16.63;15.13;;;;;;;25.07;73.09;99074.00;5156188;27;20474;-74
2021/06/18 01:07:06;;;;;;;18.50;15.87;;;;;;;25.20;72.07;99062.34;5156480;27;20427;-76
2021/06/18 01:09:44;;;;;;;17.50;15.80;;;;;;;25.08;72.35;99064.72;5156105;27;20430;-75
2021/06/18 01:12:16;;;;;;;17.07;15.57;;;;;;;25.12;72.14;99063.28;5155866;27;20455;-75
2021/06/18 01:14:55;;;;;;;16.90;15.20;;;;;;;24.90;73.22;99061.56;5156091;27;20479;-75
2021/06/18 01:17:29;;;;;;;17.80;15.57;;;;;;;24.73;74.06;99061.78;5156249;27;20424;-75
2021/06/18 01:20:16;;;;;;;16.80;15.10;;;;;;;24.71;74.36;99065.78;5155822;27;20419;-75
2021/06/18 01:22:46;;;;;;;16.37;14.80;;;;;;;24.52;75.59;99061.75;5156160;27;20435;-75
2021/06/18 01:25:19;;;;;;;16.83;15.23;;;;;;;24.44;76.69;99057.16;5156252;27;20507;-75
2021/06/18 01:27:52;;;;;;;17.73;16.10;;;;;;;24.32;77.31;99056.78;5155793;27;20426;-75
2021/06/18 01:30:22;;;;;;;17.67;15.87;;;;;;;24.39;76.67;99067.03;5156154;27;20422;-74
2021/06/18 01:32:57;;;;;;;21.23;16.53;;;;;;;24.57;75.55;99066.66;5155960;27;20455;-74
2021/06/18 01:35:29;;;;;;;18.13;16.43;;;;;;;24.73;74.62;99067.28;5155635;27;20423;-76
2021/06/18 01:37:59;;;;;;;18.23;15.53;;;;;;;24.88;73.50;99070.00;5156004;27;20745;-76
2021/06/18 01:40:28;;;;;;;16.47;14.83;;;;;;;24.94;72.86;99072.00;5155433;27;20415;-75
2021/06/18 01:42:57;;;;;;;15.97;14.57;;;;;;;25.20;70.91;99067.00;5155336;27;20419;-76
2021/06/18 01:45:27;;;;;;;16.50;14.87;;;;;;;25.30;69.20;99068.34;5155795;27;20931;-75
2021/06/18 01:47:56;;;;;;;16.07;14.43;;;;;;;25.46;68.33;99064.50;5155292;27;20450;-75
2021/06/18 01:50:25;;;;;;;15.50;14.00;;;;;;;25.54;67.49;99074.50;5155724;27;20522;-75
2021/06/18 01:52:55;;;;;;;15.40;13.77;;;;;;;25.50;67.44;99071.28;5155065;27;20557;-75
2021/06/18 01:55:25;;;;;;;15.23;13.73;;;;;;;25.70;65.96;99068.72;5155208;27;20459;-74
2021/06/18 01:57:53;;;;;;;14.13;12.77;;;;;;;25.82;65.84;99073.69;5155264;27;20428;-75
2021/06/18 02:00:21;;;;;;;12.97;11.60;;;;;;;25.76;63.86;99075.34;5155045;27;20416;-75
2021/06/18 02:02:50;;;;;;;12.70;11.50;;;;;;;25.76;63.59;99064.31;5154749;27;20431;-75
2021/06/18 02:05:18;;;;;;;12.13;10.93;;;;;;;25.72;61.85;99063.00;5155125;27;20466;-75
2021/06/18 02:07:46;;;;;;;11.77;10.60;;;;;;;25.85;60.99;99059.50;5155183;27;20502;-76
2021/06/18 02:10:14;;;;;;;10.70;9.70;;;;;;;25.88;59.50;99059.97;5155114;27;20435;-72
2021/06/18 02:12:42;;;;;;;14.00;12.60;;;;;;;25.47;65.46;99057.91;5155027;27;20561;-76
2021/06/18 02:15:10;;;;;;;15.13;12.50;;;;;;;25.30;65.84;99060.09;5154857;27;20423;-74
2021/06/18 02:17:40;;;;;;;12.20;11.10;;;;;;;25.16;65.62;99061.81;5154790;27;20810;-75
2021/06/18 02:20:11;;;;;;;11.40;10.30;;;;;;;25.26;64.04;99053.28;5154566;27;20495;-75
2021/06/18 02:22:40;;;;;;;15.53;14.00;;;;;;;25.01;68.44;99055.53;5154788;27;20502;-75
2021/06/18 02:25:09;;;;;;;14.13;12.70;;;;;;;24.74;69.59;99052.50;5154964;27;20913;-76
2021/06/18 02:27:39;;;;;;;15.10;13.77;;;;;;;24.61;70.59;99051.47;5154373;27;20443;-76
2021/06/18 02:30:08;;;;;;;14.57;13.17;;;;;;;24.54;70.63;99056.91;5154918;27;20425;-76
2021/06/18 02:32:38;;;;;;;15.03;12.50;;;;;;;24.39;70.79;99047.78;5154882;27;20481;-76
2021/06/18 02:35:06;;;;;;;13.40;12.20;;;;;;;24.44;69.90;99059.06;5154745;27;20867;-76
2021/06/18 02:37:34;;;;;;;13.57;12.37;;;;;;;24.47;69.45;99059.56;5154587;27;20960;-75
2021/06/18 02:40:01;;;;;;;13.73;12.53;;;;;;;24.53;69.15;99052.44;5154562;27;20446;-76
2021/06/18 02:42:27;;;;;;;13.07;11.73;;;;;;;24.46;69.06;99060.56;5154005;27;20442;-75
2021/06/18 02:44:55;;;;;;;14.50;13.00;;;;;;;24.43;69.26;99058.22;5153955;27;20515;-75
2021/06/18 02:47:25;;;;;;;14.03;12.50;;;;;;;24.55;68.25;99056.69;5154238;27;20441;-75
2021/06/18 02:49:55;;;;;;;14.50;13.17;;;;;;;24.41;69.27;99052.03;5154051;27;20431;-74
2021/06/18 02:52:26;;;;;;;15.10;12.97;;;;;;;24.38;69.17;99060.69;5153815;27;20471;-75
2021/06/18 02:55:02;;;;;;;14.70;12.50;;;;;;;24.51;68.60;99057.25;5154020;27;20430;-76
2021/06/18 02:57:35;;;;;;;14.33;12.40;;;;;;;24.62;68.09;99054.00;5154515;27;20775;-73
2021/06/18 03:00:07;;;;;;;13.17;12.07;;;;;;;24.60;67.83;99050.59;5153971;27;20419;-76
2021/06/18 03:02:41;;;;;;;16.10;11.37;;;;;;;24.71;67.32;99050.09;5154291;27;20865;-75
2021/06/18 03:05:09;;;;;;;73.90;20.17;;;;;;;24.72;67.20;99049.06;5154061;27;21066;-75
2021/06/18 03:07:38;;;;;;;13.33;11.50;;;;;;;24.53;68.43;99049.69;5154309;27;20848;-75
2021/06/18 03:10:08;;;;;;;12.47;11.30;;;;;;;24.27;69.74;99050.16;5154066;27;20492;-75
2021/06/18 03:12:40;;;;;;;14.03;12.10;;;;;;;24.17;69.98;99050.44;5153243;27;20536;-75
2021/06/18 03:15:09;;;;;;;13.53;12.33;;;;;;;23.96;71.00;99053.94;5153653;27;20424;-75
2021/06/18 03:17:39;;;;;;;13.37;12.10;;;;;;;23.75;71.96;99056.59;5154012;27;20415;-73
2021/06/18 03:20:09;;;;;;;13.37;12.17;;;;;;;23.72;72.08;99063.25;5154327;27;20830;-74
2021/06/18 03:22:37;;;;;;;13.97;12.10;;;;;;;23.82;71.51;99066.63;5154132;27;20433;-74
2021/06/18 03:25:05;;;;;;;13.17;11.60;;;;;;;23.72;71.44;99060.50;5154120;27;20427;-74
2021/06/18 03:27:35;;;;;;;12.90;11.70;;;;;;;23.69;71.34;99074.63;5153900;27;20428;-75
2021/06/18 03:30:04;;;;;;;14.40;11.67;;;;;;;23.85;70.28;99074.50;5154054;27;20432;-74
2021/06/18 03:32:32;;;;;;;11.17;10.07;;;;;;;24.05;68.69;99071.22;5154088;27;20570;-74
2021/06/18 03:34:59;;;;;;;19.47;10.97;;;;;;;24.12;67.84;99067.50;5153991;27;20466;-74
2021/06/18 03:37:27;;;;;;;13.00;11.57;;;;;;;24.22;67.94;99060.88;5153721;27;20956;-75
2021/06/18 03:39:55;;;;;;;11.73;10.73;;;;;;;24.13;68.17;99060.13;5153519;27;20419;-73
2021/06/18 03:42:23;;;;;;;11.57;9.90;;;;;;;24.03;68.42;99063.16;5154236;27;20866;-73
2021/06/18 03:44:52;;;;;;;13.67;11.13;;;;;;;23.89;68.94;99059.34;5153125;27;20510;-74
2021/06/18 03:47:21;;;;;;;11.60;10.40;;;;;;;23.84;69.71;99045.31;5133340;28;20448;-74
2021/06/18 03:49:48;;;;;;;11.90;10.30;;;;;;;23.78;69.77;99047.97;5141792;27;20529;-75
2021/06/18 03:52:17;;;;;;;11.30;9.90;;;;;;;23.91;68.50;99035.28;5153260;27;20553;-74
2021/06/18 03:54:44;;;;;;;11.77;10.57;;;;;;;23.70;69.51;99037.88;5153768;27;20960;-74
2021/06/18 03:57:14;;;;;;;11.10;10.10;;;;;;;23.72;69.87;99036.66;5153743;27;20437;-75
2021/06/18 03:59:42;;;;;;;13.83;9.70;;;;;;;23.72;69.66;99025.66;5153594;27;20419;-73
2021/06/18 04:02:11;;;;;;;12.13;9.60;;;;;;;23.66;69.34;99022.81;5154798;27;20761;-73
2021/06/18 04:04:39;;;;;;;10.83;9.10;;;;;;;23.65;69.02;99008.22;5157481;27;20466;-74
2021/06/18 04:07:07;;;;;;;8.43;7.70;;;;;;;23.67;68.54;98997.88;5157771;27;20518;-74
2021/06/18 04:09:34;;;;;;;10.13;8.90;;;;;;;23.64;68.98;99002.91;5157732;27;20458;-74
2021/06/18 04:12:01;;;;;;;10.07;9.17;;;;;;;23.76;68.47;98993.16;5157736;27;20423;-75
2021/06/18 04:14:29;;;;;;;12.13;9.10;;;;;;;23.66;68.46;98992.59;5157569;27;20498;-74
2021/06/18 04:16:56;;;;;;;11.10;10.00;;;;;;;23.66;68.88;98978.84;5157795;27;20463;-73
2021/06/18 04:19:24;;;;;;;10.07;9.03;;;;;;;23.78;69.48;98962.75;5157735;27;20419;-75
2021/06/18 04:21:51;;;;;;;11.10;9.10;;;;;;;23.65;70.69;98953.25;5157877;27;20446;-74
2021/06/18 04:24:18;;;;;;;9.57;8.67;;;;;;;23.46;71.05;98943.66;5157970;27;20423;-73
2021/06/18 04:26:45;;;;;;;10.33;9.23;;;;;;;23.66;69.75;98952.22;5157486;27;20438;-74
2021/06/18 04:29:12;;;;;;;10.70;9.57;;;;;;;23.87;69.09;98956.97;5157957;27;20498;-75
2021/06/18 04:31:39;;;;;;;9.97;9.07;;;;;;;24.32;67.07;98957.75;5157279;27;20533;-74
2021/06/18 04:34:07;;;;;;;8.77;7.97;;;;;;;24.34;66.64;98950.16;5157458;27;21019;-75
2021/06/18 04:36:36;;;;;;;9.03;8.20;;;;;;;24.41;65.50;98943.91;5157719;27;20439;-74
2021/06/18 04:39:04;;;;;;;10.87;9.90;;;;;;;24.41;65.64;98938.38;5156483;27;20431;-74
2021/06/18 04:41:31;;;;;;;10.80;9.00;;;;;;;24.39;65.26;98943.22;5157456;27;20526;-75
2021/06/18 04:43:57;;;;;;;10.10;7.80;;;;;;;24.44;64.94;98947.09;5157227;27;20415;-75
2021/06/18 04:46:24;;;;;;;9.80;8.87;;;;;;;24.84;62.76;98946.69;5157444;27;20774;-75
2021/06/18 04:48:51;;;;;;;10.07;7.97;;;;;;;24.64;63.40;98952.00;5157048;27;20804;-75
2021/06/18 04:51:17;;;;;;;9.63;7.87;;;;;;;24.61;62.76;98950.50;5157577;27;20855;-73
2021/06/18 04:53:46;;;;;;;8.70;7.80;;;;;;;24.69;62.37;98957.75;5156910;27;20463;-73
2021/06/18 04:56:13;;;;;;;8.00;6.77;;;;;;;24.89;61.75;98949.72;5156590;27;20435;-74
2021/06/18 04:58:40;;;;;;;9.00;7.67;;;;;;;25.02;61.47;98955.34;5157076;27;20502;-74
2021/06/18 05:01:07;;;;;;;9.87;7.70;;;;;;;25.12;61.46;98955.00;5156382;27;20443;-75
2021/06/18 05:03:34;;;;;;;7.90;7.10;;;;;;;25.21;60.81;98962.09;5156164;27;20435;-74
2021/06/18 05:06:00;;;;;;;14.23;6.83;;;;;;;25.36;60.50;98948.25;5157963;27;20779;-73
2021/06/18 05:08:27;;;;;;;12.40;8.03;;;;;;;25.28;61.10;98960.28;5156679;27;20531;-73
2021/06/18 05:10:55;;;;;;;12.57;7.90;;;;;;;25.34;60.75;98964.97;5156554;27;20511;-75
2021/06/18 05:13:22;;;;;;;12.60;7.50;;;;;;;25.34;60.71;98966.88;5155565;27;20550;-75
2021/06/18 05:15:49;;;;;;;12.97;8.03;;;;;;;25.74;59.01;98967.16;5155719;27;20436;-74
2021/06/18 05:18:15;;;;;;;8.43;7.00;;;;;;;25.83;58.05;98970.63;5155199;27;20439;-73
2021/06/18 05:20:42;;;;;;;8.23;7.43;;;;;;;25.97;57.09;98969.66;5155165;27;20753;-73
2021/06/18 05:23:10;;;;;;;9.50;7.87;;;;;;;25.91;57.63;98956.66;5155901;27;20435;-74
2021/06/18 05:25:36;;;;;;;7.23;6.53;;;;;;;25.76;57.87;98957.63;5156323;27;20442;-74
2021/06/18 05:28:05;;;;;;;9.27;8.37;;;;;;;25.70;59.19;98958.44;5156644;27;20539;-74
2021/06/18 05:30:32;;;;;;;12.03;8.90;;;;;;;25.71;59.13;98967.56;5156917;27;20458;-74
2021/06/18 05:32:58;;;;;;;12.53;9.60;;;;;;;25.80;59.24;98975.47;5155747;27;20550;-74
2021/06/18 05:35:25;;;;;;;11.23;9.50;;;;;;;26.08;58.52;98973.75;5156380;27;20435;-74
2021/06/18 05:37:52;;;;;;;15.70;9.47;;;;;;;26.27;57.46;98981.25;5156626;27;20885;-73
2021/06/18 05:40:18;;;;;;;12.57;9.77;;;;;;;26.53;56.52;98980.50;5156666;27;20424;-75
2021/06/18 05:42:45;;;;;;;15.83;13.70;;;;;;;26.71;55.89;98981.88;5156036;27;20928;-75
2021/06/18 05:45:14;;;;;;;10.70;9.33;;;;;;;26.81;55.46;98991.44;5155394;27;20746;-74
2021/06/18 05:47:40;;;;;;;12.50;7.73;;;;;;;26.91;54.98;98990.19;5155444;27;20538;-74
2021/06/18 05:50:08;;;;;;;11.43;7.50;;;;;;;26.81;55.07;98988.69;5155653;27;20442;-75
2021/06/18 05:52:35;;;;;;;10.80;8.50;;;;;;;26.64;55.88;98992.91;5156631;27;20427;-75
2021/06/18 05:55:02;;;;;;;13.83;8.03;;;;;;;26.87;55.21;98994.44;5156077;27;20526;-74
2021/06/18 05:57:29;;;;;;;9.87;7.80;;;;;;;26.94;54.81;98998.06;5155154;27;20447;-73
2021/06/18 05:59:55;;;;;;;10.77;7.43;;;;;;;26.96;54.33;99004.25;5155783;27;20443;-75
2021/06/18 06:02:24;;;;;;;9.57;6.90;;;;;;;27.07;54.08;98997.22;5153186;27;20453;-74
2021/06/18 06:04:50;;;;;;;7.47;6.77;;;;;;;27.31;53.11;99004.09;5153029;27;20474;-74
2021/06/18 06:07:17;;;;;;;7.60;6.80;;;;;;;27.22;52.84;99009.81;5155527;27;20424;-74
2021/06/18 06:09:43;;;;;;;10.30;6.90;;;;;;;27.38;52.36;99007.69;5154038;27;20530;-75
2021/06/18 06:12:10;;;;;;;8.40;7.60;;;;;;;27.19;53.13;99004.69;5153515;27;20435;-75
2021/06/18 06:14:37;;;;;;;12.30;9.07;;;;;;;27.24;53.08;99001.31;5154611;27;20570;-74
2021/06/18 06:17:04;;;;;;;13.23;8.33;;;;;;;27.19;53.48;99007.44;5153903;27;20443;-74
2021/06/18 06:19:32;;;;;;;7.13;6.27;;;;;;;27.06;54.00;99009.34;5155222;27;20455;-72
2021/06/18 06:21:59;;;;;;;9.17;7.77;;;;;;;27.08;53.68;99016.34;5154287;27;20486;-74
2021/06/18 06:24:26;;;;;;;12.90;6.00;;;;;;;26.68;55.22;99012.66;5154639;27;20426;-74
2021/06/18 06:26:52;;;;;;;8.37;6.93;;;;;;;26.63;55.58;99027.06;5154099;27;20518;-72
2021/06/18 06:29:19;;;;;;;7.27;6.60;;;;;;;26.59;55.21;99020.25;5154504;27;20438;-75
2021/06/18 06:31:46;;;;;;;12.10;7.27;;;;;;;26.68;55.42;99024.53;5153861;27;20443;-74
2021/06/18 06:34:12;;;;;;;9.53;7.40;;;;;;;26.70;56.04;99036.22;5154094;27;20477;-74
2021/06/18 06:36:40;;;;;;;16.23;7.70;;;;;;;26.72;56.29;99034.13;5153905;27;20436;-73
2021/06/18 06:39:07;;;;;;;12.93;7.30;;;;;;;26.78;56.32;99040.72;5153585;27;20900;-73
2021/06/18 06:41:34;;;;;;;15.17;8.57;;;;;;;26.77;56.24;99034.38;5153251;27;20438;-75
2021/06/18 06:44:00;;;;;;;12.20;7.00;;;;;;;26.53;56.62;99035.72;5153452;27;20786;-74
2021/06/18 06:46:27;;;;;;;8.63;6.40;;;;;;;26.55;56.57;99035.56;5153381;27;20445;-73
2021/06/18 06:48:54;;;;;;;7.50;6.43;;;;;;;26.61;56.47;99043.84;5153794;27;20537;-74
2021/06/18 06:51:21;;;;;;;12.50;7.17;;;;;;;26.63;56.01;99043.63;5151339;27;20531;-74
2021/06/18 06:53:49;;;;;;;9.00;7.63;;;;;;;26.59;55.49;99042.34;5152624;27;21042;-76
2021/06/18 06:56:15;;;;;;;9.43;8.17;;;;;;;26.68;55.92;99043.88;5152301;27;20451;-73
2021/06/18 06:58:43;;;;;;;7.33;6.40;;;;;;;26.79;55.79;99043.25;5152793;27;20534;-74
2021/06/18 07:01:10;;;;;;;8.70;7.20;;;;;;;26.74;56.01;99047.72;5152792;27;20928;-75
2021/06/18 07:03:37;;;;;;;9.03;6.67;;;;;;;26.75;56.20;99046.66;5152951;27;20431;-76
2021/06/18 07:06:04;;;;;;;7.77;6.87;;;;;;;27.14;55.25;99051.44;5151674;27;20466;-76
2021/06/18 07:08:31;;;;;;;8.00;7.30;;;;;;;27.59;53.96;99056.41;5152349;27;20439;-75
2021/06/18 07:10:59;;;;;;;10.90;7.43;;;;;;;27.84;53.05;99056.66;5152436;27;20499;-74
2021/06/18 07:13:26;;;;;;;10.13;7.50;;;;;;;28.18;52.36;99047.22;5152295;27;20477;-74
2021/06/18 07:15:53;;;;;;;9.80;8.23;;;;;;;28.35;52.05;99057.81;5152291;27;20443;-74
2021/06/18 07:18:20;;;;;;;8.83;7.93;;;;;;;28.25;51.99;99058.28;5153072;27;21399;-74
2021/06/18 07:20:47;;;;;;;9.63;7.37;;;;;;;28.17;52.52;99058.50;5151878;27;20439;-74
2021/06/18 07:23:14;;;;;;;10.93;8.00;;;;;;;28.11;52.72;99071.28;5152744;27;20431;-75
2021/06/18 07:25:42;;;;;;;8.10;7.17;;;;;;;28.07;52.71;99070.03;5151805;27;20490;-74
2021/06/18 07:28:10;;;;;;;8.03;7.33;;;;;;;27.98;53.10;99068.53;5152898;27;20447;-75
2021/06/18 07:30:37;;;;;;;12.93;8.00;;;;;;;27.83;53.70;99063.19;5152550;27;20781;-74
2021/06/18 07:33:04;;;;;;;14.20;8.43;;;;;;;27.64;54.33;99068.53;5152750;27;20463;-74
2021/06/18 07:35:32;;;;;;;13.83;8.03;;;;;;;27.63;54.67;99077.03;5151965;27;20901;-74
2021/06/18 07:37:59;;;;;;;8.50;6.93;;;;;;;27.40;55.15;99071.91;5150956;27;20450;-75
2021/06/18 07:40:25;;;;;;;9.23;7.57;;;;;;;27.34;55.44;99075.50;5152020;27;20491;-74
2021/06/18 07:42:52;;;;;;;8.83;7.17;;;;;;;27.43;55.29;99066.81;5151964;27;20499;-75
2021/06/18 07:45:20;;;;;;;8.73;7.90;;;;;;;27.66;54.78;99069.16;5153221;27;20807;-75
2021/06/18 07:47:47;;;;;;;7.83;7.03;;;;;;;27.83;54.34;99069.56;5152117;27;20459;-76
2021/06/18 07:50:15;;;;;;;11.27;8.30;;;;;;;28.23;53.26;99058.47;5152169;27;20443;-76
2021/06/18 07:52:43;;;;;;;11.37;7.50;;;;;;;28.03;53.86;99064.06;5153379;27;20439;-74
2021/06/18 07:55:16;;;;;;;9.07;6.80;;;;;;;27.95;54.38;99061.53;5151250;27;20566;-77
2021/06/18 07:57:43;;;;;;;7.17;6.47;;;;;;;28.16;54.17;99056.81;5152116;27;21210;-76
2021/06/18 08:00:11;;;;;;;11.17;7.27;;;;;;;28.27;53.73;99059.75;5151937;27;21138;-78
2021/06/18 08:02:39;;;;;;;9.47;7.03;;;;;;;28.01;54.11;99044.03;5150400;27;20482;-77
2021/06/18 08:05:09;;;;;;;9.17;7.17;;;;;;;28.23;53.37;99046.56;5150805;27;20463;-75
2021/06/18 08:07:36;;;;;;;13.03;7.40;;;;;;;28.64;51.91;99053.69;5151836;27;20481;-76
2021/06/18 08:10:04;;;;;;;8.67;6.70;;;;;;;28.87;51.39;99047.59;5151376;27;20987;-74
2021/06/18 08:12:31;;;;;;;7.77;6.90;;;;;;;29.45;49.40;99054.94;5152750;27;20447;-75
2021/06/18 08:14:57;;;;;;;7.47;6.73;;;;;;;29.78;48.14;99053.84;5154446;27;20459;-78
2021/06/18 08:17:24;;;;;;;8.63;6.00;;;;;;;29.82;47.77;99055.94;5158256;27;20577;-76
2021/06/18 08:19:52;;;;;;;6.43;5.83;;;;;;;30.11;45.75;99064.63;5158342;27;20435;-76
2021/06/18 08:22:19;;;;;;;9.27;6.90;;;;;;;29.89;46.08;99078.06;5156963;27;20783;-76
2021/06/18 08:24:45;;;;;;;8.73;7.60;;;;;;;29.91;46.36;99084.25;5158190;27;20471;-78
2021/06/18 08:27:12;;;;;;;8.07;7.30;;;;;;;29.90;46.82;99079.78;5156847;27;20892;-77
2021/06/18 08:29:39;;;;;;;8.00;6.47;;;;;;;30.22;46.08;99077.75;5157549;27;20431;-77
2021/06/18 08:32:07;;;;;;;13.50;8.73;;;;;;;30.48;46.08;99078.56;5156648;27;20503;-76
2021/06/18 08:34:33;;;;;;;8.10;5.67;;;;;;;30.54;45.28;99081.25;5156746;27;20563;-76
2021/06/18 08:37:01;;;;;;;7.23;5.50;;;;;;;30.72;44.84;99082.34;5157249;27;20502;-76
2021/06/18 08:39:28;;;;;;;7.37;6.37;;;;;;;30.60;44.54;99089.78;5155316;27;20924;-77
2021/06/18 08:41:56;;;;;;;9.90;5.97;;;;;;;30.52;44.62;99100.09;5157751;27;20468;-77
2021/06/18 08:44:22;;;;;;;6.03;5.43;;;;;;;30.09;45.64;99094.53;5158516;27;20507;-77
2021/06/18 08:46:49;;;;;;;7.40;6.23;;;;;;;29.78;46.93;99081.59;5157938;27;20439;-77
2021/06/18 08:49:16;;;;;;;8.83;5.27;;;;;;;29.48;47.93;99076.69;5159577;27;20558;-77
2021/06/18 08:51:42;;;;;;;7.90;6.40;;;;;;;29.02;49.65;99077.81;5161787;27;20439;-77
2021/06/18 08:54:12;;;;;;;10.43;7.83;;;;;;;29.13;51.73;99077.13;5160128;27;20488;-77
2021/06/18 08:56:39;;;;;;;9.67;6.53;;;;;;;29.29;51.98;99071.06;5160285;27;20431;-77
2021/06/18 08:59:06;;;;;;;12.23;10.93;;;;;;;29.23;52.64;99069.16;5161994;27;20454;-75
2021/06/18 09:01:32;;;;;;;7.33;6.63;;;;;;;29.54;52.16;99077.72;5163072;27;20924;-77
2021/06/18 09:04:03;;;;;;;10.80;6.50;;;;;;;30.12;50.23;99083.84;5161960;27;20510;-77
2021/06/18 09:06:31;;;;;;;10.47;6.90;;;;;;;30.45;48.59;99093.78;5160631;27;20839;-76
2021/06/18 09:09:17;;;;;;;6.87;6.10;;;;;;;30.69;47.60;99089.22;5160921;27;20478;-77
2021/06/18 09:11:47;;;;;;;22.37;7.70;;;;;;;30.76;47.46;99087.19;5161359;27;20435;-75
2021/06/18 09:14:23;;;;;;;7.90;6.80;;;;;;;30.73;46.18;99081.25;5162678;27;20463;-77
2021/06/18 09:17:08;;;;;;;6.93;6.23;;;;;;;30.71;46.58;99091.78;5162246;27;20509;-77
2021/06/18 09:19:37;;;;;;;10.80;6.67;;;;;;;30.66;46.70;99094.38;5160575;27;20448;-77
2021/06/18 09:22:05;;;;;;;7.60;6.50;;;;;;;30.65;46.48;99101.03;5163620;27;21215;-76
2021/06/18 09:24:36;;;;;;;7.47;6.60;;;;;;;30.51;46.47;99108.69;5162223;27;20522;-77
2021/06/18 09:27:04;;;;;;;7.83;5.80;;;;;;;30.46;46.35;99101.03;5162896;27;20455;-77
2021/06/18 09:29:31;;;;;;;9.10;8.17;;;;;;;30.53;46.32;99092.63;5162850;27;20525;-77
2021/06/18 09:32:00;;;;;;;7.27;6.00;;;;;;;30.39;46.41;99085.50;5163358;27;20439;-77
2021/06/18 09:34:36;;;;;;;8.07;6.40;;;;;;;29.91;48.01;99078.69;5162959;27;20502;-77
2021/06/18 09:37:21;;;;;;;7.60;6.90;;;;;;;29.93;48.13;99074.63;5158588;27;20446;-76
2021/06/18 09:40:06;;;;;;;8.43;7.57;;;;;;;30.16;47.43;99072.28;5162110;27;20450;-76
2021/06/18 09:42:33;;;;;;;8.30;6.87;;;;;;;30.43;47.24;99078.41;5159754;27;20442;-78
2021/06/18 09:45:02;;;;;;;6.20;5.60;;;;;;;30.76;46.43;99064.13;5163146;27;20443;-77
2021/06/18 09:47:29;;;;;;;10.33;7.57;;;;;;;30.91;46.33;99064.59;5163498;27;20466;-77
2021/06/18 09:49:57;;;;;;;6.20;5.60;;;;;;;30.96;45.45;99058.34;5162221;27;20456;-77
2021/06/18 09:52:25;;;;;;;6.17;5.60;;;;;;;31.32;44.99;99060.16;5160409;27;20440;-77
2021/06/18 09:54:54;;;;;;;8.07;5.43;;;;;;;31.68;43.95;99063.91;5159890;27;20501;-78
2021/06/18 09:57:23;;;;;;;10.90;7.67;;;;;;;31.86;43.67;99062.94;5161396;27;20788;-78
2021/06/18 09:59:55;;;;;;;7.37;6.13;;;;;;;31.73;43.96;99069.59;5160060;27;20447;-77
2021/06/18 10:02:23;;;;;;;6.97;5.90;;;;;;;31.62;43.72;99067.63;5158806;27;20518;-76
2021/06/18 10:04:52;;;;;;;7.57;5.60;;;;;;;31.70;43.98;99072.84;5159338;27;20507;-76
2021/06/18 10:07:21;;;;;;;7.83;5.80;;;;;;;31.88;43.18;99068.25;5160504;27;20856;-76
2021/06/18 10:09:49;;;;;;;6.60;5.23;;;;;;;31.75;43.02;99069.34;5161399;27;20435;-77
2021/06/18 10:12:16;;;;;;;8.97;4.83;;;;;;;31.56;43.34;99072.22;5160292;27;20443;-77
2021/06/18 10:14:43;;;;;;;7.63;5.77;;;;;;;31.58;43.37;99069.19;5159666;27;20510;-78
2021/06/18 10:17:10;;;;;;;8.00;6.10;;;;;;;31.88;42.82;99071.03;5161204;27;20542;-76
2021/06/18 10:19:37;;;;;;;9.73;6.00;;;;;;;32.14;41.98;99066.97;5160779;27;20905;-77
2021/06/18 10:22:08;;;;;;;10.10;6.80;;;;;;;32.20;42.51;99077.13;5161515;27;20451;-77
2021/06/18 10:24:39;;;;;;;11.23;5.60;;;;;;;31.85;42.74;99063.19;5159807;27;20427;-76
2021/06/18 10:27:07;;;;;;;10.43;5.27;;;;;;;32.03;41.69;99063.09;5161367;27;20477;-77
2021/06/18 10:29:36;;;;;;;6.30;4.93;;;;;;;32.29;41.31;99069.25;5161790;27;20901;-76
2021/06/18 10:32:40;;;;;;;6.13;5.40;;;;;;;32.53;40.56;99068.16;5159521;27;20469;-75
2021/06/18 10:35:08;;;;;;;7.20;5.30;;;;;;;32.66;39.88;99063.44;5161913;27;20466;-78
2021/06/18 10:37:35;;;;;;;6.70;5.53;;;;;;;32.91;39.80;99063.09;5159960;27;20444;-76
2021/06/18 10:40:12;;;;;;;5.70;4.73;;;;;;;32.22;40.97;99055.44;5160728;27;20439;-76
2021/06/18 10:43:05;;;;;;;5.97;5.37;;;;;;;32.41;40.61;99050.59;5162881;27;20435;-78
2021/06/18 10:46:19;;;;;;;9.63;5.60;;;;;;;32.30;41.46;99057.03;5161590;27;20463;-77
2021/06/18 10:49:05;;;;;;;8.43;5.13;;;;;;;31.95;42.08;99058.72;5161356;27;20587;-77
2021/06/18 10:51:38;;;;;;;10.50;5.80;;;;;;;32.43;41.41;99051.22;5158235;27;20523;-77
2021/06/18 10:54:08;;;;;;;7.53;4.90;;;;;;;33.12;39.59;99047.63;5156817;27;20450;-76
2021/06/18 10:57:11;;;;;;;9.13;5.00;;;;;;;32.48;40.97;99042.94;5161889;27;20447;-75
2021/06/18 10:59:42;;;;;;;6.77;5.00;;;;;;;32.81;39.61;99047.00;5158857;27;20502;-77
2021/06/18 11:02:31;;;;;;;11.97;5.60;;;;;;;32.99;39.65;99051.53;5161708;27;20439;-77
2021/06/18 11:05:00;;;;;;;6.70;4.30;;;;;;;33.56;37.63;99051.53;5160875;27;21171;-76
2021/06/18 11:07:28;;;;;;;6.40;4.63;;;;;;;34.30;36.56;99056.06;5161593;27;20442;-77
2021/06/18 11:09:55;;;;;;;12.20;7.23;;;;;;;34.80;36.66;99052.31;5161705;27;20558;-76
2021/06/18 11:12:46;;;;;;;8.57;5.17;;;;;;;35.06;35.75;99053.44;5157629;27;20962;-77
2021/06/18 11:15:39;;;;;;;8.83;4.67;;;;;;;35.22;34.87;99062.88;5158229;27;20519;-77
2021/06/18 11:18:15;;;;;;;8.30;5.73;;;;;;;34.75;35.07;99049.44;5156825;27;20466;-77
2021/06/18 11:20:54;;;;;;;7.00;5.37;;;;;;;33.63;36.92;99055.00;5160047;27;20446;-77
2021/06/18 11:23:24;;;;;;;12.50;5.17;;;;;;;34.03;35.81;99053.13;5163001;27;20435;-76
2021/06/18 11:25:52;;;;;;;5.83;5.20;;;;;;;33.52;37.62;99055.91;5161909;27;20431;-77
2021/06/18 11:28:56;;;;;;;8.33;5.17;;;;;;;33.08;37.47;99038.06;5162136;27;20937;-77
2021/06/18 11:31:42;;;;;;;9.93;5.40;;;;;;;33.61;37.04;99037.66;5163429;27;20495;-78
2021/06/18 11:34:25;;;;;;;6.50;5.03;;;;;;;33.66;36.00;99031.34;5161837;27;20447;-76
2021/06/18 11:36:54;;;;;;;9.10;5.70;;;;;;;33.12;37.31;99019.75;5161035;27;20457;-76